Salt Lake City, Utah
Traffic Map
Current Weather Conditions
Salt Lake City, Utah
Clear
Clear
20°
Feels Like: 11°
Wind Chill: 11° Ceiling: Unl
Heat Index: 20° Visibility: 10mi
Dew Point: 13° Wind: 7mph
Humidity: 74% Direction: 140° (SE)
Pressure: 30.15in Gusts: 0mph
Raw Report DataKSLC 210354Z 14006KT 10SM CLR M07/M11 A3015 RMK AO2 SLP245 T10671106
Traffic Incident Summary
Active as of:
Severity:
Category:
InformationThere was an issue retrieving the traffic information for this location. Please try a different location or try again shortly.
Advertisements